createdAt,value
2023-03-13T00:02:05.395Z,4.75
2023-03-13T00:04:35.200Z,4.62
2023-03-13T00:07:04.780Z,4.53
2023-03-13T00:09:34.358Z,4.53
2023-03-13T00:12:03.630Z,4.85
2023-03-13T00:14:33.287Z,4.65
2023-03-13T00:17:03.152Z,5.35
2023-03-13T00:19:32.502Z,5.10
2023-03-13T00:22:01.709Z,5.22
2023-03-13T00:24:31.205Z,5.60
2023-03-13T00:27:02.052Z,5.75
2023-03-13T00:29:32.852Z,6.03
2023-03-13T00:32:02.421Z,6.45
2023-03-13T00:34:31.811Z,5.45
2023-03-13T00:37:01.080Z,6.45
2023-03-13T00:39:30.451Z,6.95
2023-03-13T00:42:03.046Z,6.15
2023-03-13T00:44:32.679Z,6.00
2023-03-13T00:47:01.972Z,6.35
2023-03-13T00:49:31.242Z,6.28
2023-03-13T00:52:00.891Z,6.12
2023-03-13T00:54:30.238Z,5.85
2023-03-13T00:56:59.461Z,6.47
2023-03-13T00:59:29.071Z,6.05
2023-03-13T01:02:00.215Z,6.28
2023-03-13T01:04:29.632Z,6.60
2023-03-13T01:06:58.846Z,6.53
2023-03-13T01:09:28.421Z,6.75
2023-03-13T01:11:57.716Z,6.62
2023-03-13T01:14:27.040Z,6.95
2023-03-13T01:16:56.253Z,6.67
2023-03-13T01:19:26.272Z,7.03
2023-03-13T01:21:55.812Z,6.90
2023-03-13T01:24:26.885Z,7.55
2023-03-13T01:26:56.324Z,7.37
2023-03-13T01:29:25.545Z,7.45
2023-03-13T01:31:55.129Z,7.72
2023-03-13T01:34:24.335Z,7.58
2023-03-13T01:36:53.841Z,8.68
2023-03-13T01:39:23.397Z,8.95
2023-03-13T01:41:52.958Z,9.28
2023-03-13T01:44:27.321Z,10.35
2023-03-13T01:46:57.549Z,10.68
2023-03-13T01:49:36.191Z,11.40
2023-03-13T01:52:27.213Z,11.73
2023-03-13T01:55:06.765Z,12.13
2023-03-13T01:57:42.097Z,13.68
2023-03-13T02:00:17.011Z,13.85
2023-03-13T02:02:49.658Z,14.68
2023-03-13T02:05:21.182Z,15.50
2023-03-13T02:07:53.538Z,16.12
2023-03-13T02:10:23.016Z,16.95
2023-03-13T02:12:53.226Z,16.40
2023-03-13T02:15:25.567Z,17.62
2023-03-13T02:17:55.926Z,18.90
2023-03-13T02:20:25.977Z,17.75
2023-03-13T02:23:20.453Z,18.55
2023-03-13T02:25:54.273Z,17.85
2023-03-13T02:28:35.746Z,18.23
2023-03-13T02:31:07.602Z,18.75
2023-03-13T02:33:40.078Z,18.92
2023-03-13T02:36:10.364Z,18.80
2023-03-13T02:38:54.732Z,17.40
2023-03-13T02:41:26.097Z,17.95
2023-03-13T02:43:56.731Z,17.73
2023-03-13T02:46:26.252Z,17.70
2023-03-13T02:48:57.430Z,17.45
2023-03-13T02:51:43.149Z,16.70
2023-03-13T02:54:15.605Z,16.85
2023-03-13T02:56:49.062Z,14.75
2023-03-13T02:59:18.628Z,14.33
2023-03-13T03:01:49.900Z,13.72
2023-03-13T03:04:24.946Z,11.90
2023-03-13T03:06:56.177Z,11.73
2023-03-13T03:09:25.970Z,11.28
2023-03-13T03:11:57.040Z,10.10
2023-03-13T03:14:28.076Z,10.10
2023-03-13T03:16:57.878Z,9.58
2023-03-13T03:19:27.764Z,9.50
2023-03-13T03:21:57.456Z,9.03
2023-03-13T03:24:26.863Z,9.58
2023-03-13T03:26:56.420Z,9.73
2023-03-13T03:29:28.102Z,9.18
2023-03-13T03:31:58.351Z,9.90
2023-03-13T03:34:27.788Z,9.78
2023-03-13T03:36:58.248Z,9.35
2023-03-13T03:39:29.192Z,9.58
2023-03-13T03:41:58.779Z,9.65
2023-03-13T03:44:28.560Z,9.13
2023-03-13T03:46:59.656Z,8.85
2023-03-13T03:49:30.632Z,8.35
2023-03-13T03:52:00.081Z,8.73
2023-03-13T03:54:31.115Z,8.10
2023-03-13T03:57:00.844Z,8.18
2023-03-13T03:59:30.116Z,8.05
2023-03-13T04:02:01.294Z,8.30
2023-03-13T04:04:32.110Z,8.23
2023-03-13T04:07:03.063Z,8.28
2023-03-13T04:09:33.683Z,7.92
2023-03-13T04:12:05.023Z,7.75
2023-03-13T04:14:35.954Z,7.20
2023-03-13T04:17:07.242Z,7.00
2023-03-13T04:19:36.702Z,6.83
2023-03-13T04:22:06.408Z,6.62
2023-03-13T04:24:36.266Z,6.78
2023-03-13T04:27:06.733Z,6.28
2023-03-13T04:29:36.999Z,6.28
2023-03-13T04:32:24.067Z,5.97
2023-03-13T04:35:04.231Z,5.90
2023-03-13T04:37:45.359Z,5.70
2023-03-13T04:40:32.154Z,5.35
2023-03-13T04:43:05.969Z,5.08
2023-03-13T04:45:56.773Z,5.58
2023-03-13T04:48:30.647Z,4.97
2023-03-13T04:51:16.931Z,5.22
2023-03-13T04:54:04.714Z,5.50
2023-03-13T04:56:51.865Z,5.60
2023-03-13T04:59:22.829Z,5.30
2023-03-13T05:02:13.780Z,5.10
2023-03-13T05:04:52.292Z,4.90
2023-03-13T05:07:26.151Z,5.50
2023-03-13T05:10:00.237Z,4.90
2023-03-13T05:12:49.788Z,4.75
2023-03-13T05:15:20.742Z,5.15
2023-03-13T05:18:07.770Z,5.30
2023-03-13T05:20:44.636Z,5.70
2023-03-13T05:23:33.594Z,5.05
2023-03-13T05:26:08.033Z,5.47
2023-03-13T05:28:45.401Z,4.67
2023-03-13T05:31:34.995Z,5.00
2023-03-13T05:34:15.003Z,4.30
2023-03-13T05:36:52.148Z,4.20
2023-03-13T05:39:23.460Z,4.40
2023-03-13T05:41:57.133Z,3.92
2023-03-13T05:44:31.276Z,3.72
2023-03-13T05:47:11.015Z,3.50
2023-03-13T05:49:44.718Z,3.83
2023-03-13T05:52:15.626Z,3.52
2023-03-13T05:54:46.765Z,4.15
2023-03-13T05:57:17.749Z,3.90
2023-03-13T05:59:55.234Z,3.98
2023-03-13T06:02:44.825Z,4.03
2023-03-13T06:05:16.163Z,3.55
2023-03-13T06:07:46.674Z,4.10
2023-03-13T06:10:16.567Z,3.77
2023-03-13T06:12:46.595Z,3.92
2023-03-13T06:15:16.345Z,3.72
2023-03-13T06:17:53.342Z,3.55
2023-03-13T06:20:22.840Z,3.75
2023-03-13T06:22:52.259Z,3.98
2023-03-13T06:25:22.569Z,3.72
2023-03-13T06:27:52.005Z,3.92
2023-03-13T06:30:21.295Z,3.77
2023-03-13T06:32:50.716Z,3.65
2023-03-13T06:35:20.026Z,3.72
2023-03-13T06:37:49.665Z,3.47
2023-03-13T06:40:19.038Z,3.87
2023-03-13T06:42:48.250Z,3.67
2023-03-13T06:45:17.556Z,3.52
2023-03-13T06:47:46.802Z,3.42
2023-03-13T06:50:16.312Z,3.62
2023-03-13T06:52:46.071Z,3.92
2023-03-13T06:55:15.563Z,3.87
2023-03-13T06:57:44.890Z,3.67
2023-03-13T07:00:15.260Z,3.77
2023-03-13T07:02:44.823Z,3.70
2023-03-13T07:05:14.697Z,3.40
2023-03-13T07:07:45.169Z,3.70
2023-03-13T07:10:14.744Z,4.05
2023-03-13T07:12:44.528Z,3.58
2023-03-13T07:15:13.760Z,3.60
2023-03-13T07:17:43.140Z,3.50
2023-03-13T07:20:13.748Z,2.95
2023-03-13T07:22:44.028Z,3.70
2023-03-13T07:25:13.252Z,3.90
2023-03-13T07:27:42.554Z,3.45
2023-03-13T07:30:12.931Z,3.75
2023-03-13T07:32:42.225Z,3.95
2023-03-13T07:35:11.572Z,3.60
2023-03-13T07:37:40.878Z,3.37
2023-03-13T07:40:11.444Z,3.52
2023-03-13T07:42:44.193Z,3.27
2023-03-13T07:45:13.566Z,3.62
2023-03-13T07:47:42.997Z,3.52
2023-03-13T07:50:12.995Z,3.17
2023-03-13T07:52:42.210Z,3.25
2023-03-13T07:55:11.513Z,3.87
2023-03-13T07:57:40.854Z,3.47
2023-03-13T08:00:13.444Z,3.33
2023-03-13T08:02:42.904Z,3.50
2023-03-13T08:05:12.083Z,3.40
2023-03-13T08:07:43.566Z,3.40
2023-03-13T08:10:13.450Z,3.52
2023-03-13T08:12:42.680Z,3.50
2023-03-13T08:15:12.440Z,3.80
2023-03-13T08:17:41.667Z,3.65
2023-03-13T08:20:12.139Z,3.05
2023-03-13T08:22:41.367Z,3.33
2023-03-13T08:25:11.206Z,3.02
2023-03-13T08:27:40.690Z,3.58
2023-03-13T08:30:10.629Z,3.00
2023-03-13T08:32:40.398Z,2.72
2023-03-13T08:35:10.197Z,2.90
2023-03-13T08:37:39.686Z,2.50
2023-03-13T08:40:13.612Z,2.20
2023-03-13T08:42:42.876Z,2.12
2023-03-13T08:45:12.425Z,2.60
2023-03-13T08:47:41.787Z,2.12
2023-03-13T08:50:11.557Z,2.47
2023-03-13T08:52:40.798Z,2.08
2023-03-13T08:55:10.490Z,1.72
2023-03-13T08:57:39.970Z,1.85
2023-03-13T09:00:11.192Z,1.82
2023-03-13T09:02:40.481Z,1.72
2023-03-13T09:05:10.058Z,1.77
2023-03-13T09:07:39.855Z,1.75
2023-03-13T09:10:09.848Z,1.50
2023-03-13T09:12:39.127Z,1.85
2023-03-13T09:15:09.597Z,1.90
2023-03-13T09:17:38.886Z,2.02
2023-03-13T09:20:09.418Z,2.10
2023-03-13T09:22:38.653Z,1.82
2023-03-13T09:25:09.021Z,2.05
2023-03-13T09:27:38.240Z,2.20
2023-03-13T09:30:08.708Z,1.87
2023-03-13T09:32:38.080Z,2.00
2023-03-13T09:35:08.394Z,1.82
2023-03-13T09:37:37.604Z,2.00
2023-03-13T09:40:08.493Z,2.30
2023-03-13T09:42:43.450Z,2.00
2023-03-13T09:45:15.171Z,2.15
2023-03-13T09:47:53.007Z,1.97
2023-03-13T09:50:27.444Z,2.22
2023-03-13T09:53:02.420Z,1.70
2023-03-13T09:55:33.978Z,2.20
2023-03-13T09:58:06.387Z,2.35
2023-03-13T10:00:41.283Z,2.25
2023-03-13T10:03:13.742Z,2.17
2023-03-13T10:05:51.105Z,1.90
2023-03-13T10:08:23.643Z,1.87
2023-03-13T10:14:02.719Z,1.90
2023-03-13T10:16:35.298Z,2.10
2023-03-13T10:21:36.439Z,1.65
2023-03-13T10:24:08.928Z,1.50
2023-03-13T10:26:39.457Z,2.00
2023-03-13T10:29:20.834Z,1.80
2023-03-13T10:32:01.622Z,1.40
2023-03-13T10:34:57.117Z,1.60
2023-03-13T10:37:29.494Z,1.50
2023-03-13T10:40:25.540Z,1.50
2023-03-13T10:42:57.476Z,1.40
2023-03-13T10:45:27.148Z,1.62
2023-03-13T10:47:58.281Z,1.85
2023-03-13T10:50:29.884Z,2.00
2023-03-13T10:52:59.377Z,2.27
2023-03-13T10:55:28.807Z,2.35
2023-03-13T10:58:00.245Z,2.30
2023-03-13T11:00:39.906Z,1.90
2023-03-13T11:03:22.138Z,2.15
2023-03-13T11:05:59.764Z,1.95
2023-03-13T11:08:32.150Z,2.10
2023-03-13T11:11:06.706Z,2.30
2023-03-13T11:13:45.032Z,2.00
2023-03-13T11:16:23.485Z,2.12
2023-03-13T11:19:12.635Z,1.95
2023-03-13T11:21:57.106Z,1.80
2023-03-13T11:24:46.444Z,2.00
2023-03-13T11:27:28.017Z,1.70
2023-03-13T11:30:06.952Z,1.40
2023-03-13T11:32:56.537Z,1.35
2023-03-13T11:35:46.976Z,1.42
2023-03-13T11:38:28.710Z,1.30
2023-03-13T11:41:04.148Z,1.30
2023-03-13T11:43:42.634Z,1.40
2023-03-13T11:46:17.858Z,1.37
2023-03-13T11:49:02.114Z,1.20
2023-03-13T11:51:37.506Z,1.40
2023-03-13T11:54:40.255Z,1.40
2023-03-13T11:57:21.072Z,1.30
2023-03-13T11:59:56.137Z,1.30
2023-03-13T12:02:28.113Z,1.35
2023-03-13T12:05:03.397Z,1.35
2023-03-13T12:07:48.211Z,1.70
2023-03-13T12:10:26.401Z,1.52
2023-03-13T12:13:14.293Z,1.47
2023-03-13T12:15:45.667Z,1.60
2023-03-13T12:18:36.293Z,1.70
2023-03-13T12:21:24.387Z,1.67
2023-03-13T12:24:17.744Z,1.32
2023-03-13T12:26:50.169Z,1.45
2023-03-13T12:32:14.080Z,1.62
2023-03-13T12:35:02.467Z,1.50
2023-03-13T12:37:39.824Z,2.05
2023-03-13T12:40:24.037Z,1.32
2023-03-13T12:43:05.456Z,1.57
2023-03-13T12:45:36.914Z,1.40
2023-03-13T12:48:09.627Z,1.70
2023-03-13T12:50:50.906Z,1.50
2023-03-13T12:53:38.748Z,1.30
2023-03-13T12:56:11.232Z,1.50
2023-03-13T13:01:31.771Z,1.62
2023-03-13T13:04:22.530Z,1.47
2023-03-13T13:07:02.698Z,1.90
2023-03-13T13:09:39.246Z,1.60
2023-03-13T13:12:31.160Z,1.90
2023-03-13T13:15:04.223Z,2.20
2023-03-13T13:17:48.371Z,2.08
2023-03-13T13:20:38.589Z,2.40
2023-03-13T13:23:31.855Z,2.20
2023-03-13T13:26:30.156Z,2.27
2023-03-13T13:29:01.414Z,2.20
2023-03-13T13:31:51.791Z,2.30
2023-03-13T13:34:34.980Z,2.58
2023-03-13T13:37:25.588Z,2.27
2023-03-13T13:39:56.472Z,2.55
2023-03-13T13:42:38.790Z,2.72
2023-03-13T13:45:21.182Z,2.47
2023-03-13T13:47:51.948Z,2.30
2023-03-13T13:50:24.367Z,2.87
2023-03-13T13:52:54.287Z,2.65
2023-03-13T13:55:29.456Z,2.33
2023-03-13T13:58:13.469Z,2.58
2023-03-13T14:01:01.613Z,2.67
2023-03-13T14:03:33.252Z,3.20
2023-03-13T14:06:19.879Z,2.77
2023-03-13T14:08:51.149Z,2.87
2023-03-13T14:11:31.484Z,2.85
2023-03-13T14:14:11.348Z,2.67
2023-03-13T14:16:42.499Z,2.95
2023-03-13T14:19:31.037Z,2.87
2023-03-13T14:22:02.755Z,3.02
2023-03-13T14:24:32.041Z,3.45
2023-03-13T14:27:01.786Z,3.00
2023-03-13T14:29:31.091Z,2.75
2023-03-13T14:32:00.966Z,2.70
2023-03-13T14:34:32.719Z,2.80
2023-03-13T14:37:17.752Z,2.87
2023-03-13T14:39:37.677Z,2.92
2023-03-13T14:42:15.018Z,2.77
2023-03-13T14:44:46.717Z,4.30
2023-03-13T14:47:19.344Z,2.60
2023-03-13T14:49:48.933Z,2.65
2023-03-13T14:52:25.924Z,3.10
2023-03-13T14:54:58.239Z,3.10
2023-03-13T14:57:29.035Z,2.62
2023-03-13T15:00:17.783Z,3.17
2023-03-13T15:02:47.444Z,2.95
2023-03-13T15:05:35.170Z,2.95
2023-03-13T15:08:04.691Z,3.40
2023-03-13T15:10:37.685Z,3.00
2023-03-13T15:13:22.466Z,3.40
2023-03-13T15:15:53.743Z,3.33
2023-03-13T15:18:28.661Z,3.27
2023-03-13T15:21:01.040Z,3.42
2023-03-13T15:23:30.706Z,3.70
2023-03-13T15:26:00.214Z,3.17
2023-03-13T15:28:30.871Z,3.52
2023-03-13T15:31:00.357Z,3.25
2023-03-13T15:33:30.756Z,3.25
2023-03-13T15:36:00.362Z,3.30
2023-03-13T15:38:30.184Z,3.02
2023-03-13T15:40:59.416Z,3.50
2023-03-13T15:43:29.079Z,3.30
2023-03-13T15:45:58.928Z,3.37
2023-03-13T15:48:31.293Z,2.85
2023-03-13T15:51:04.320Z,3.05
2023-03-13T15:53:35.774Z,3.33
2023-03-13T15:56:08.627Z,3.05
2023-03-13T15:58:38.540Z,3.52
2023-03-13T16:01:10.023Z,3.02
2023-03-13T16:03:39.653Z,3.02
2023-03-13T16:06:21.234Z,2.95
2023-03-13T16:08:50.586Z,3.37
2023-03-13T16:11:20.197Z,3.58
2023-03-13T16:13:50.147Z,3.62
2023-03-13T16:16:29.522Z,3.47
2023-03-13T16:19:00.537Z,3.35
2023-03-13T16:21:33.106Z,4.03
2023-03-13T16:26:32.445Z,3.75
2023-03-13T16:29:02.082Z,3.40
2023-03-13T16:31:33.284Z,3.42
2023-03-13T16:34:03.823Z,3.60
2023-03-13T16:36:33.621Z,3.45
2023-03-13T16:39:08.468Z,3.30
2023-03-13T16:41:38.148Z,3.85
2023-03-13T16:44:07.593Z,3.37
2023-03-13T16:46:46.006Z,4.03
2023-03-13T16:49:15.384Z,4.50
2023-03-13T16:51:44.892Z,3.55
2023-03-13T16:54:14.126Z,3.67
2023-03-13T16:56:44.799Z,3.55
2023-03-13T16:59:16.643Z,3.33
2023-03-13T17:01:47.278Z,4.08
2023-03-13T17:04:16.716Z,4.03
2023-03-13T17:06:47.065Z,4.37
2023-03-13T17:09:18.025Z,3.65
2023-03-13T17:11:47.753Z,3.60
2023-03-13T17:14:16.962Z,4.20
2023-03-13T17:16:46.915Z,3.42
2023-03-13T17:19:17.220Z,3.98
2023-03-13T17:21:46.559Z,3.27
2023-03-13T17:24:15.796Z,3.65
2023-03-13T17:26:45.290Z,3.75
2023-03-13T17:29:18.285Z,4.05
2023-03-13T17:31:47.581Z,3.90
2023-03-13T17:34:16.919Z,4.03
2023-03-13T17:36:47.568Z,4.37
2023-03-13T17:39:16.842Z,6.33
2023-03-13T17:41:46.151Z,4.22
2023-03-13T17:44:15.376Z,4.22
2023-03-13T17:46:47.865Z,4.65
2023-03-13T17:51:48.506Z,6.60
2023-03-13T17:54:18.543Z,15.53
2023-03-13T17:56:48.361Z,9.05
2023-03-13T17:59:19.193Z,6.17
2023-03-13T18:01:48.649Z,6.80
2023-03-13T18:04:17.915Z,5.05
2023-03-13T18:06:50.368Z,4.05
2023-03-13T18:09:21.320Z,4.47
2023-03-13T18:11:51.375Z,4.67
2023-03-13T18:14:21.445Z,3.90
2023-03-13T18:16:52.234Z,4.80
2023-03-13T18:19:23.756Z,4.65
2023-03-13T18:21:55.064Z,5.17
2023-03-13T18:24:24.419Z,4.33
2023-03-13T18:26:53.779Z,4.70
2023-03-13T18:29:29.190Z,4.42
2023-03-13T18:32:00.827Z,4.40
2023-03-13T18:34:30.245Z,4.03
2023-03-13T18:37:01.528Z,4.72
2023-03-13T18:39:32.487Z,4.72
2023-03-13T18:42:02.049Z,5.53
2023-03-13T18:44:31.721Z,5.83
2023-03-13T18:47:00.980Z,6.22
2023-03-13T18:49:30.444Z,4.72
2023-03-13T18:51:59.722Z,5.05
2023-03-13T18:54:29.048Z,5.22
2023-03-13T18:56:58.609Z,5.42
2023-03-13T18:59:27.952Z,5.65
2023-03-13T19:01:57.381Z,5.05
2023-03-13T19:04:26.666Z,4.87
2023-03-13T19:06:56.433Z,5.10
2023-03-13T19:09:42.760Z,5.90
2023-03-13T19:11:56.887Z,8.50
2023-03-13T19:14:26.256Z,5.55
2023-03-13T19:16:57.924Z,5.30
2023-03-13T19:19:27.965Z,5.10
2023-03-13T19:21:58.756Z,5.08
2023-03-13T19:24:28.776Z,4.78
2023-03-13T19:27:01.120Z,4.83
2023-03-13T19:29:32.145Z,4.53
2023-03-13T19:32:03.119Z,4.50
2023-03-13T19:34:32.395Z,4.60
2023-03-13T19:37:01.627Z,4.55
2023-03-13T19:39:31.098Z,6.03
2023-03-13T19:42:00.403Z,5.83
2023-03-13T19:44:29.737Z,8.40
2023-03-13T19:47:00.511Z,12.47
2023-03-13T19:49:30.018Z,10.53
2023-03-13T19:52:00.229Z,6.15
2023-03-13T19:54:29.535Z,5.97
2023-03-13T19:56:58.894Z,4.97
2023-03-13T19:59:28.814Z,5.62
2023-03-13T20:01:59.692Z,5.05
2023-03-13T20:04:29.510Z,5.08
2023-03-13T20:06:59.009Z,5.47
2023-03-13T20:09:28.794Z,5.03
2023-03-13T20:11:58.025Z,5.22
2023-03-13T20:14:28.334Z,5.25
2023-03-13T20:16:57.973Z,5.25
2023-03-13T20:19:29.246Z,4.87
2023-03-13T20:22:04.414Z,5.37
2023-03-13T20:24:34.653Z,4.97
2023-03-13T20:27:04.157Z,5.20
2023-03-13T20:29:34.258Z,6.72
2023-03-13T20:32:05.313Z,6.05
2023-03-13T20:34:35.651Z,5.50
2023-03-13T20:37:05.244Z,4.72
2023-03-13T20:39:36.631Z,4.40
2023-03-13T20:42:07.845Z,4.75
2023-03-13T20:44:37.507Z,4.37
2023-03-13T20:47:06.697Z,4.45
2023-03-13T20:49:36.060Z,5.08
2023-03-13T20:52:05.549Z,4.83
2023-03-13T20:54:35.854Z,4.97
2023-03-13T20:57:05.368Z,4.37
2023-03-13T20:59:34.984Z,3.85
2023-03-13T21:02:04.570Z,5.00
2023-03-13T21:04:34.403Z,5.85
2023-03-13T21:07:04.753Z,5.50
2023-03-13T21:09:35.584Z,5.55
2023-03-13T21:12:05.826Z,5.40
2023-03-13T21:14:36.566Z,5.20
2023-03-13T21:17:05.903Z,5.05
2023-03-13T21:19:35.202Z,5.03
2023-03-13T21:22:04.597Z,5.45
2023-03-13T21:24:34.288Z,4.90
2023-03-13T21:27:03.804Z,5.12
2023-03-13T21:29:33.492Z,5.42
2023-03-13T21:32:02.932Z,5.10
2023-03-13T21:34:32.316Z,5.65
2023-03-13T21:37:01.620Z,4.95
2023-03-13T21:39:31.693Z,5.28
2023-03-13T21:42:02.338Z,4.92
2023-03-13T21:44:31.679Z,4.53
2023-03-13T21:47:01.259Z,4.78
2023-03-13T21:49:30.669Z,4.92
2023-03-13T21:51:59.924Z,5.33
2023-03-13T21:54:29.497Z,4.58
2023-03-13T21:56:59.264Z,4.72
2023-03-13T21:59:30.342Z,4.83
2023-03-13T22:01:59.910Z,8.13
2023-03-13T22:04:30.922Z,4.58
2023-03-13T22:07:08.609Z,4.58
2023-03-13T22:09:40.334Z,4.17
2023-03-13T22:12:17.272Z,4.25
2023-03-13T22:14:51.215Z,3.90
2023-03-13T22:17:26.940Z,3.75
2023-03-13T22:19:58.395Z,3.50
2023-03-13T22:22:29.435Z,3.55
2023-03-13T22:25:00.370Z,3.65
2023-03-13T22:27:35.620Z,3.47
2023-03-13T22:30:08.975Z,3.50
2023-03-13T22:32:53.338Z,3.37
2023-03-13T22:35:46.693Z,2.77
2023-03-13T22:38:15.964Z,3.15
2023-03-13T22:40:45.233Z,3.25
2023-03-13T22:43:15.642Z,5.60
2023-03-13T22:45:44.882Z,5.62
2023-03-13T22:48:14.116Z,3.40
2023-03-13T22:50:43.439Z,3.02
2023-03-13T22:53:13.206Z,2.92
2023-03-13T22:55:42.594Z,3.00
2023-03-13T22:58:12.064Z,3.33
2023-03-13T23:00:41.318Z,2.67
2023-03-13T23:03:10.547Z,2.75
2023-03-13T23:05:40.921Z,3.20
2023-03-13T23:08:10.493Z,3.05
2023-03-13T23:10:39.770Z,2.98
2023-03-13T23:13:09.198Z,3.35
2023-03-13T23:15:55.265Z,3.00
2023-03-13T23:18:11.474Z,3.23
2023-03-13T23:20:40.735Z,2.52
2023-03-13T23:23:10.337Z,2.60
2023-03-13T23:25:40.231Z,2.80
2023-03-13T23:28:09.471Z,2.60
2023-03-13T23:30:39.024Z,3.00
2023-03-13T23:33:08.681Z,2.55
2023-03-13T23:35:38.805Z,5.47
2023-03-13T23:38:08.256Z,3.10
2023-03-13T23:40:37.846Z,2.42
2023-03-13T23:43:07.099Z,2.20
2023-03-13T23:45:37.358Z,2.33
2023-03-13T23:48:06.962Z,2.00
2023-03-13T23:50:37.558Z,2.25
2023-03-13T23:53:07.155Z,1.55
2023-03-13T23:55:36.374Z,3.55
2023-03-13T23:58:05.913Z,2.00
